Frej — SBPT — position and weather

sailwx.info

Track history (hours):
 
Tides and Currents Weather Stations Pressure Air Temp Water Temp Dewpoint Dewpoint Depression Visibility Wind Speed Wind Dir Waves Ship Positions

Frej

Last reported at 2016-May-27 10:00 UTC. Time now 2016-Sep-29 22:06 UTC.
Position N 65°36' E 022°12'.
Warning: this ship's position is months out of date.

Length 108 m; draft 7.8 m.

Type: Other ship. MMSI: 265068000.

Wind from 210 at 4 knots

Barometer 1016.7 mb
Air temperature 14.6 ° C
Water temperature 9.3 ° C

Date/timePositionNaut miles runAvg speedWind from/ knotsBaromVisibWave heightAir tempDewpointWater temp
2016-May-27 10:00N 65°36' E 022°12'0 0.0 210 / 41016.7 14.6 9.3
2016-May-27 02:00N 65°36' E 022°12'0 0.0 210 / 41016.7 9.7 9.0
2016-May-27 01:00N 65°36' E 022°12'0 0.0 210 / 41016.7 8.8 9.0
2016-May-27 00:00N 65°36' E 022°12'0 0.0 210 / 41016.7 10.5 9.0
2016-May-26 23:00N 65°36' E 022°12'0 0.0 210 / 41016.7 11.2 9.0
2016-May-26 22:00N 65°36' E 022°12'0 0.0 210 / 41016.7 11.8 9.1
2016-May-26 19:00N 65°36' E 022°12'0 0.0 210 / 41016.7 14.7 9.0
2016-May-26 18:00N 65°36' E 022°12'0 0.0 210 / 41016.7 15.7 8.9
2016-May-26 15:00N 65°36' E 022°12'0 0.0 210 / 41016.7 16.6 8.8
2016-May-26 11:00N 65°36' E 022°12'0 0.0 210 / 41016.7 16.0 8.7
2016-May-26 00:00N 65°36' E 022°12'0 0.0 210 / 41016.7 11.3 8.8
2016-May-25 22:00N 65°36' E 022°12'0 0.0 210 / 41016.7 12.3 8.8
2016-May-25 20:00N 65°36' E 022°12'0 0.0 210 / 41016.7 14.8 8.8
2016-May-25 12:00N 65°36' E 022°12'0 0.0 210 / 41016.7 15.2 8.7
2016-May-25 11:00N 65°36' E 022°12'0 0.0 210 / 41016.7 15.0 8.7
2016-May-25 09:00N 65°36' E 022°12'0 0.0 210 / 41016.7 12.4 8.6
2016-May-25 02:00N 65°36' E 022°12'0 0.0 210 / 41016.7 10.2 8.6
2016-May-24 16:00N 65°36' E 022°12'0 0.0 210 / 41016.7 15.1 8.7
2016-May-24 13:00N 65°36' E 022°12'0 0.0 210 / 41016.7 14.8 8.7
2016-May-24 04:00N 65°36' E 022°12'0 0.0 210 / 41016.7 9.4 8.7
2016-May-23 14:00N 65°36' E 022°12'0 0.0 210 / 41016.7 10.6 8.6
2016-May-23 13:00N 65°36' E 022°12'0 0.0 210 / 41016.7 10.9 8.6
2016-May-23 12:00N 65°36' E 022°12'0 0.0 210 / 41016.7 8.6 8.6
2016-May-23 11:00N 65°36' E 022°12'0 0.0 210 / 41016.7 7.8 8.5
2016-May-23 09:00N 65°36' E 022°12'0 0.0 210 / 41016.7 7.4 8.5
2016-May-23 07:00N 65°36' E 022°12'0 0.0 210 / 41016.7 7.9 8.5
2016-May-23 06:00N 65°36' E 022°12'0 0.0 210 / 41016.7 7.5 8.4
2016-May-23 03:00N 65°36' E 022°12'0 0.0 210 / 41016.7 7.3 8.4
2016-May-23 02:00N 65°36' E 022°12'0 0.0 210 / 41016.7 7.3 8.4
2016-May-22 18:00N 65°36' E 022°12'0 0.0 210 / 41016.7 9.0 8.5
2016-May-22 15:00N 65°36' E 022°12'0 0.0 210 / 41016.7 8.5 8.5
2016-May-22 10:00N 65°36' E 022°12'0 0.0 210 / 41016.7 9.3 8.3
2016-May-22 02:00N 65°36' E 022°12'0 0.0 210 / 41016.7 7.2 8.0
2016-May-22 01:00N 65°36' E 022°12'0 0.0 210 / 41016.7 7.3 8.0
2016-May-21 20:00N 65°36' E 022°12'0 0.0 210 / 41016.7 9.9 8.1
2016-May-21 19:00N 65°36' E 022°12'0 0.0 210 / 41016.7 12.2 8.0
2016-May-21 17:00N 65°36' E 022°12'0 0.0 210 / 41016.7 15.2 8.0
2016-May-21 14:00N 65°36' E 022°12'0 0.0 210 / 41016.7 16.2 7.8
2016-May-21 12:00N 65°36' E 022°12'0 0.0 210 / 41016.7 15.3 7.5
2016-May-21 02:00N 65°36' E 022°12'0 0.0 210 / 41016.7 7.9 7.5
2016-May-20 23:00N 65°36' E 022°12'0 0.0 210 / 41016.7 5.1 7.5
2016-May-20 21:00N 65°36' E 022°12'0 0.0 210 / 41016.7 6.2 7.5
2016-May-20 13:00N 65°36' E 022°12'0 0.0 210 / 41016.7 7.4 7.6
2016-May-20 11:00N 65°36' E 022°12'0 0.0 210 / 41016.7 7.7 7.2
2016-May-20 09:00N 65°36' E 022°12'0 0.0 210 / 41016.7 8.0 7.4
2016-May-18 09:00N 65°36' E 022°12'0 0.0 210 / 41007.0 6.5 7.3
2016-May-17 20:00N 65°36' E 022°12'   210 / 41004.3 7.4 7.2
Track history (hours):
 
Tides and Currents Weather Stations Pressure Air Temp Water Temp Dewpoint Dewpoint Depression Visibility Wind Speed Wind Dir Waves Ship Positions

Frej

Last reported at 2016-May-27 10:00 UTC. Time now 2016-Sep-29 22:06 UTC.
Position N 65°36' E 022°12'.
Warning: this ship's position is months out of date.

Length 108 m; draft 7.8 m.

Type: Other ship. MMSI: 265068000.

Wind from 210 at 4 knots

Barometer 1016.7 mb
Air temperature 14.6 ° C
Water temperature 9.3 ° C

Date/timePositionNaut miles runAvg speedWind from/ knotsBaromVisibWave heightAir tempDewpointWater temp
2016-May-27 10:00N 65°36' E 022°12'0 0.0 210 / 41016.7 14.6 9.3
2016-May-27 02:00N 65°36' E 022°12'0 0.0 210 / 41016.7 9.7 9.0
2016-May-27 01:00N 65°36' E 022°12'0 0.0 210 / 41016.7 8.8 9.0
2016-May-27 00:00N 65°36' E 022°12'0 0.0 210 / 41016.7 10.5 9.0
2016-May-26 23:00N 65°36' E 022°12'0 0.0 210 / 41016.7 11.2 9.0
2016-May-26 22:00N 65°36' E 022°12'0 0.0 210 / 41016.7 11.8 9.1
2016-May-26 19:00N 65°36' E 022°12'0 0.0 210 / 41016.7 14.7 9.0
2016-May-26 18:00N 65°36' E 022°12'0 0.0 210 / 41016.7 15.7 8.9
2016-May-26 15:00N 65°36' E 022°12'0 0.0 210 / 41016.7 16.6 8.8
2016-May-26 11:00N 65°36' E 022°12'0 0.0 210 / 41016.7 16.0 8.7
2016-May-26 00:00N 65°36' E 022°12'0 0.0 210 / 41016.7 11.3 8.8
2016-May-25 22:00N 65°36' E 022°12'0 0.0 210 / 41016.7 12.3 8.8
2016-May-25 20:00N 65°36' E 022°12'0 0.0 210 / 41016.7 14.8 8.8
2016-May-25 12:00N 65°36' E 022°12'0 0.0 210 / 41016.7 15.2 8.7
2016-May-25 11:00N 65°36' E 022°12'0 0.0 210 / 41016.7 15.0 8.7
2016-May-25 09:00N 65°36' E 022°12'0 0.0 210 / 41016.7 12.4 8.6
2016-May-25 02:00N 65°36' E 022°12'0 0.0 210 / 41016.7 10.2 8.6
2016-May-24 16:00N 65°36' E 022°12'0 0.0 210 / 41016.7 15.1 8.7
2016-May-24 13:00N 65°36' E 022°12'0 0.0 210 / 41016.7 14.8 8.7
2016-May-24 04:00N 65°36' E 022°12'0 0.0 210 / 41016.7 9.4 8.7
2016-May-23 14:00N 65°36' E 022°12'0 0.0 210 / 41016.7 10.6 8.6
2016-May-23 13:00N 65°36' E 022°12'0 0.0 210 / 41016.7 10.9 8.6
2016-May-23 12:00N 65°36' E 022°12'0 0.0 210 / 41016.7 8.6 8.6
2016-May-23 11:00N 65°36' E 022°12'0 0.0 210 / 41016.7 7.8 8.5
2016-May-23 09:00N 65°36' E 022°12'0 0.0 210 / 41016.7 7.4 8.5
2016-May-23 07:00N 65°36' E 022°12'0 0.0 210 / 41016.7 7.9 8.5
2016-May-23 06:00N 65°36' E 022°12'0 0.0 210 / 41016.7 7.5 8.4
2016-May-23 03:00N 65°36' E 022°12'0 0.0 210 / 41016.7 7.3 8.4
2016-May-23 02:00N 65°36' E 022°12'0 0.0 210 / 41016.7 7.3 8.4
2016-May-22 18:00N 65°36' E 022°12'0 0.0 210 / 41016.7 9.0 8.5
2016-May-22 15:00N 65°36' E 022°12'0 0.0 210 / 41016.7 8.5 8.5
2016-May-22 10:00N 65°36' E 022°12'0 0.0 210 / 41016.7 9.3 8.3
2016-May-22 02:00N 65°36' E 022°12'0 0.0 210 / 41016.7 7.2 8.0
2016-May-22 01:00N 65°36' E 022°12'0 0.0 210 / 41016.7 7.3 8.0
2016-May-21 20:00N 65°36' E 022°12'0 0.0 210 / 41016.7 9.9 8.1
2016-May-21 19:00N 65°36' E 022°12'0 0.0 210 / 41016.7 12.2 8.0
2016-May-21 17:00N 65°36' E 022°12'0 0.0 210 / 41016.7 15.2 8.0
2016-May-21 14:00N 65°36' E 022°12'0 0.0 210 / 41016.7 16.2 7.8
2016-May-21 12:00N 65°36' E 022°12'0 0.0 210 / 41016.7 15.3 7.5
2016-May-21 02:00N 65°36' E 022°12'0 0.0 210 / 41016.7 7.9 7.5
2016-May-20 23:00N 65°36' E 022°12'0 0.0 210 / 41016.7 5.1 7.5
2016-May-20 21:00N 65°36' E 022°12'0 0.0 210 / 41016.7 6.2 7.5
2016-May-20 13:00N 65°36' E 022°12'0 0.0 210 / 41016.7 7.4 7.6
2016-May-20 11:00N 65°36' E 022°12'0 0.0 210 / 41016.7 7.7 7.2
2016-May-20 09:00N 65°36' E 022°12'0 0.0 210 / 41016.7 8.0 7.4
2016-May-18 09:00N 65°36' E 022°12'0 0.0 210 / 41007.0 6.5 7.3
2016-May-17 20:00N 65°36' E 022°12'   210 / 41004.3 7.4 7.2

Dump ship's entire track history